Colgrade, Louisiana
Current Conditions -  °F | °C
As of 7:15 AM on Thursday 23 Oct 2014 (Local Time) from KIER Reporting Station
Clear Clear  
Wind Chill: 54°   Ceiling: Unl
Heat Index: 54°   Visibility: 10mi
Dew Point: 49°   Wind: 0mph
Humidity: 85%   Direction: NA
Pressure: 30.14"   Gusts: NA
Location:  31.885°N, 92.6017°W
Report Text: KIER 231215Z AUTO 00000KT 10SM CLR 12/10 A3014 RMK AO2 T01200096
Loading
Personal Weather Stations






























Interactive Weather Map
Tropical Storm Tracking
New forecast layout! Learn more

10-Day Weather Forecast

Advertisements
Track Severe Weather on mobile